createdAt,value
2023-08-30T00:04:31.542Z,99438.28
2023-08-30T00:14:34.786Z,99439.06
2023-08-30T00:24:39.007Z,99442.53
2023-08-30T00:34:41.816Z,99442.03
2023-08-30T00:44:45.977Z,99445.50
2023-08-30T00:54:49.070Z,99433.38
2023-08-30T01:16:15.983Z,99423.16
2023-08-30T01:26:29.124Z,99403.91
2023-08-30T01:36:33.681Z,99405.84
2023-08-30T01:46:37.040Z,99396.16
2023-08-30T01:56:41.294Z,99390.38
2023-08-30T02:06:48.093Z,99381.28
2023-08-30T02:16:52.874Z,99378.34
2023-08-30T02:26:56.170Z,99381.50
2023-08-30T02:37:00.321Z,99381.28
2023-08-30T02:47:03.216Z,99374.88
2023-08-30T02:57:07.458Z,99382.84
2023-08-30T03:07:10.293Z,99372.44
2023-08-30T03:17:14.454Z,99382.47
2023-08-30T03:27:17.697Z,99377.59
2023-08-30T03:37:21.863Z,99394.53
2023-08-30T03:47:24.794Z,99384.81
2023-08-30T03:57:28.960Z,99387.03
2023-08-30T04:07:31.744Z,99391.66
2023-08-30T04:17:35.962Z,99385.00
2023-08-30T04:27:38.887Z,99376.13
2023-08-30T04:37:43.929Z,99364.59
2023-08-30T04:47:47.036Z,99368.06
2023-08-30T04:57:51.352Z,99359.13
2023-08-30T05:07:54.157Z,99357.84
2023-08-30T05:17:58.294Z,99361.19
2023-08-30T05:28:01.120Z,99367.28
2023-08-30T05:38:05.569Z,99361.81
2023-08-30T05:48:08.768Z,99361.66
2023-08-30T05:58:13.090Z,99376.38
2023-08-30T06:08:15.955Z,99377.66
2023-08-30T06:18:20.433Z,99377.06
2023-08-30T06:28:23.240Z,99373.47
2023-08-30T06:38:27.444Z,99355.91
2023-08-30T06:48:30.259Z,99359.84
2023-08-30T06:58:34.479Z,99358.34
2023-08-30T07:08:37.394Z,99346.06
2023-08-30T07:18:41.772Z,99353.91
2023-08-30T07:28:44.735Z,99345.28
2023-08-30T07:38:48.866Z,99354.97
2023-08-30T07:48:52.989Z,99351.63
2023-08-30T07:58:57.530Z,99354.63
2023-08-30T08:09:00.940Z,99368.50
2023-08-30T08:19:05.280Z,99372.09
2023-08-30T08:29:08.068Z,99362.56
2023-08-30T08:39:12.261Z,99362.00
2023-08-30T08:49:16.405Z,99361.03
2023-08-30T08:59:21.857Z,99366.84
2023-08-30T09:09:24.955Z,99367.63
2023-08-30T09:19:29.417Z,99353.47
2023-08-30T09:29:32.765Z,99355.03
2023-08-30T09:39:37.046Z,99346.28
2023-08-30T09:49:45.413Z,99328.53
2023-08-30T09:59:50.965Z,99320.78
2023-08-30T10:10:09.062Z,99306.66
2023-08-30T10:20:14.634Z,99298.31
2023-08-30T10:30:18.311Z,99279.47
2023-08-30T10:40:23.261Z,99282.81
2023-08-30T10:50:36.562Z,99272.69
2023-08-30T11:00:42.221Z,99263.22
2023-08-30T11:10:45.896Z,99253.91
2023-08-30T11:20:50.178Z,99254.31
2023-08-30T11:30:55.799Z,99233.72
2023-08-30T11:41:00.010Z,99219.31
2023-08-30T11:51:02.961Z,99231.53
2023-08-30T12:01:07.283Z,99225.47
2023-08-30T12:11:19.785Z,99219.94
2023-08-30T12:21:23.960Z,99210.81
2023-08-30T12:31:28.664Z,99214.25
2023-08-30T12:41:34.610Z,99199.03
2023-08-30T12:51:37.473Z,99198.22
2023-08-30T13:01:41.879Z,99193.22
2023-08-30T13:11:44.882Z,99195.22
2023-08-30T13:21:49.061Z,99175.81
2023-08-30T13:31:51.942Z,99189.78
2023-08-30T13:41:56.069Z,99187.09
2023-08-30T13:51:58.913Z,99158.47
2023-08-30T14:02:05.184Z,99145.72
2023-08-30T14:12:08.854Z,99149.84
2023-08-30T14:22:13.359Z,99154.94
2023-08-30T14:32:16.143Z,99161.19
2023-08-30T14:42:20.285Z,99155.94
2023-08-30T14:52:23.288Z,99159.06
2023-08-30T15:02:27.464Z,99152.69
2023-08-30T15:12:30.274Z,99153.19
2023-08-30T15:22:34.499Z,99144.66
2023-08-30T15:32:37.414Z,99139.22
2023-08-30T15:42:42.333Z,99146.31
2023-08-30T15:52:45.196Z,99129.94
2023-08-30T16:02:52.824Z,99132.97
2023-08-30T16:12:55.925Z,99135.69
2023-08-30T16:23:00.809Z,99117.97
2023-08-30T16:33:03.695Z,99120.03
2023-08-30T16:43:08.500Z,99134.78
2023-08-30T16:53:11.313Z,99127.06
2023-08-30T17:03:15.944Z,99143.66
2023-08-30T17:13:19.937Z,99164.56
2023-08-30T17:23:24.888Z,99181.81
2023-08-30T17:33:28.602Z,99191.16
2023-08-30T17:43:32.765Z,99201.97
2023-08-30T17:53:36.248Z,99188.53
2023-08-30T18:03:40.664Z,99203.38
2023-08-30T18:13:44.171Z,99203.34
2023-08-30T18:24:14.858Z,99228.28
2023-08-30T18:34:18.085Z,99257.44
2023-08-30T18:44:22.236Z,99255.72
2023-08-30T18:54:25.419Z,99274.16
2023-08-30T19:04:33.999Z,99316.38
2023-08-30T19:14:37.272Z,99322.66
2023-08-30T19:24:41.699Z,99330.94
2023-08-30T19:34:44.521Z,99349.34
2023-08-30T19:44:48.794Z,99355.78
2023-08-30T19:54:52.055Z,99334.03
2023-08-30T20:04:56.922Z,99348.91
2023-08-30T20:15:00.189Z,99371.47
2023-08-30T20:25:04.691Z,99365.97
2023-08-30T20:35:08.278Z,99391.34
2023-08-30T20:45:12.762Z,99397.84
2023-08-30T20:55:19.201Z,99402.78
2023-08-30T21:05:28.196Z,99384.13
2023-08-30T21:15:31.121Z,99389.44
2023-08-30T21:25:39.244Z,99394.69
2023-08-30T21:35:43.429Z,99389.91
2023-08-30T21:45:47.616Z,99394.50
2023-08-30T21:55:50.408Z,99364.75
2023-08-30T22:06:01.786Z,99382.78
2023-08-30T22:16:04.953Z,99407.78
2023-08-30T22:26:09.165Z,99411.00
2023-08-30T22:36:11.962Z,99415.63
2023-08-30T22:46:16.339Z,99417.38
2023-08-30T22:56:19.167Z,99424.19
2023-08-30T23:06:23.335Z,99428.38
2023-08-30T23:16:26.237Z,99437.69
2023-08-30T23:26:30.471Z,99422.97
2023-08-30T23:36:33.288Z,99437.44
2023-08-30T23:46:38.850Z,99437.44
2023-08-30T23:56:41.840Z,99450.75
